Maryville, TN

5:20 PM EST on February 08, 2016 (GMT -0500)
Carpenters Campground | | Change Station
CLOSE
Current Station
Personal Weather Station
Location: Maryville, TN
Elevation: 1070 ft
Nearby Weather Stations
Active Advisory: Winter Weather Advisory

Elev 1070 ft 35.66 °N, 84.01 °W | Updated 13 minutes ago

Overcast
Overcast
41.4 °F
Feels Like 34 °F
N
14.5
Wind Variable Wind from West

Today
High -- | Low -- °F
--% Chance of Precip.
Yesterday
High -- | Low -- °F
Precip. -- in
Pressure 29.74 in
Visibility 10.0 miles
Clouds Scattered Clouds 5500 ft
Overcast 7000 ft
Windchill 34 °F
Dew Point 23 °F
Humidity 48%
Rainfall 0.00 in
Snow Depth Not available.
7:30 AM 6:10 PM
New Moon, 0% visible
METAR KTYS 082153Z 25015G21KT 10SM SCT055 OVC070 06/M06 A2973 RMK AO2 SLP069 T00561061
Pressure 29.74 in
Visibility 10.0 miles
Clouds Scattered Clouds 5500 ft
Overcast 7000 ft
Windchill 34 °F
Dew Point 23 °F
Humidity 48%
Rainfall 0.00 in
Snow Depth Not available.
7:30 AM 6:10 PM
New Moon, 0% visible
METAR KTYS 082153Z 25015G21KT 10SM SCT055 OVC070 06/M06 A2973 RMK AO2 SLP069 T00561061

10-Day Weather Forecast

Almanac

Astronomy

Feb. 08, 2016 Rise Set
Actual Time
Civil Twilight
Nautical Twilight
Astronomical Twilight
Moon
Length of Visible Light
Length of Day
Tomorrow will be .
, % of the Moon is Illuminated

Today's Extremes

State Highs State Lows

Community

WunderPhotos

Upload Photos

1,891,516 photos uploaded!

WunderBlog® & News

Nearby

Air Quality

  Air Quality AQ Index Pollutant
Not available.

Snow Depth

Station Depth Elevation

Earthquake Activity

City Distance Mag. Time & Date
Minimum magnitude displayed is 2.5.

Coastal Water Temperatures

Place Temperature

Stations

Nearby Weather Stations

Station Location Temp. Windchill Dew Point Humidity Wind Precip. Elev Updated Type
                   

Watches & Warnings

Winter Weather Advisory
Issued: 2:58 PM CST Feb. 8, 2016 – National Weather Service

... Winter Weather Advisory remains in effect until 7 am EST /6 am
CST/ Wednesday...

* event... a series of upper-level disturbances will sweep across
the area over the next couple of days and nights... bringing
several periods of snow showers to the region. During the event
places will range from 1 to 2 inches of snowfall over that period
of time... with a few locally higher amounts possible in the
higher elevations.

* Timing... tonight through Tuesday night.

* Impacts... the snow could cause hazardous driving conditions...
especially on secondary roads.

Precautionary/preparedness actions...

A Winter Weather Advisory for snow means that periods of snow are
expected or occurring... but accumulations are expected to be
light. Driving and walking may be difficult on untreated
roadways and sidewalks. Be prepared for snow covered roads and
limited visibilities. If you must travel... slow down and allow
extra time to reach your destination.